KLHZ

Details ICAO KLHZ
Name FRANKLIN CO
Region United States
Timezone America/New_York (UTC-4.0)
Plans Departing 25
Arriving 6
Stats Elevation 369 ft / 112 m (AMSL)
Location 36.023345° -78.330272°
Runways 1
Magnetic Variation 9.508° W
Sunrise 2018-05-26 10:01:51 UTC / 2018-05-26 06:01:51 Local
Sunset 2018-05-27 00:21:48 UTC / 2018-05-26 20:21:48 Local
Advertisement - Login to hide

Runways

ID Width Length Bearing (true) Bearing (mag) Surface Threshold Offset Overrun Length
05 100 ft / 30 m 5,503 ft / 1,677 m 40.86° 50.37° Asphalt 0 ft / 0 m 0 ft / 0 m
23 100 ft / 30 m 5,503 ft / 1,677 m 220.86° 230.37° Asphalt 0 ft / 0 m 0 ft / 0 m

Map

Weather


0- 5 10 15 20 25 30 35+ Temperature / ° C

Clouds and Precipitation
Forecast for 2018-05-26 12:00 UTC. Updated 5 hours ago

Ground ~20,000 ft ~40,000 ft Winds

METAR

KLHZ 261555Z AUTO 21005KT 10SM BKN024 25/21 A3002 RMK AO2

TAF

Not found

Frequencies

Recorded 118.32 MHz AWOS 3
Approach 125.30 MHz RALEIGH APP/DEP
Unicom 123.00 MHz CTAF/UNICOM
Warning: Do not use this data for real-world aviation or navigation. No guarantee of current accuracy is given.